sensor_id;sensor_type;location;lat;lon;timestamp;pressure;altitude;pressure_sealevel;temperature;humidity
43217;BME280;60511;42.686;23.300;2023-04-01T00:00:26;93787.09;;;22.20;27.93
43217;BME280;60511;42.686;23.300;2023-04-01T00:02:27;93841.94;;;22.58;27.73
43217;BME280;60511;42.686;23.300;2023-04-01T00:04:27;93854.66;;;22.58;28.06
43217;BME280;60511;42.686;23.300;2023-04-01T00:06:28;93804.19;;;22.28;28.10
43217;BME280;60511;42.686;23.300;2023-04-01T00:08:29;93829.88;;;22.49;27.96
43217;BME280;60511;42.686;23.300;2023-04-01T00:10:29;93789.88;;;22.24;28.00
43217;BME280;60511;42.686;23.300;2023-04-01T00:12:30;93848.13;;;22.59;27.93
43217;BME280;60511;42.686;23.300;2023-04-01T00:14:30;93771.56;;;22.10;27.92
43217;BME280;60511;42.686;23.300;2023-04-01T00:16:30;93842.31;;;22.57;28.09
43217;BME280;60511;42.686;23.300;2023-04-01T00:18:31;93796.38;;;22.23;28.01
43217;BME280;60511;42.686;23.300;2023-04-01T00:20:31;93830.88;;;22.37;28.01
43217;BME280;60511;42.686;23.300;2023-04-01T00:22:32;93856.16;;;22.55;28.24
43217;BME280;60511;42.686;23.300;2023-04-01T00:24:33;93819.72;;;22.38;28.05
43217;BME280;60511;42.686;23.300;2023-04-01T00:26:34;93819.31;;;22.36;27.94
43217;BME280;60511;42.686;23.300;2023-04-01T00:28:35;93803.69;;;22.22;28.13
43217;BME280;60511;42.686;23.300;2023-04-01T00:30:37;93756.91;;;22.07;27.99
43217;BME280;60511;42.686;23.300;2023-04-01T00:32:37;93841.53;;;22.56;27.88
43217;BME280;60511;42.686;23.300;2023-04-01T00:34:38;93803.44;;;22.31;28.11
43217;BME280;60511;42.686;23.300;2023-04-01T00:36:39;93827.13;;;22.45;28.20
43217;BME280;60511;42.686;23.300;2023-04-01T00:38:40;93841.53;;;22.56;28.22
43217;BME280;60511;42.686;23.300;2023-04-01T00:40:45;93831.53;;;22.57;27.84
43217;BME280;60511;42.686;23.300;2023-04-01T00:42:46;93835.00;;;22.57;28.07
43217;BME280;60511;42.686;23.300;2023-04-01T00:44:54;93806.25;;;22.38;27.96
43217;BME280;60511;42.686;23.300;2023-04-01T00:46:55;93780.59;;;22.21;27.97
43217;BME280;60511;42.686;23.300;2023-04-01T00:48:56;93812.88;;;22.44;28.17
43217;BME280;60511;42.686;23.300;2023-04-01T00:51:03;93815.69;;;22.55;27.95
43217;BME280;60511;42.686;23.300;2023-04-01T00:53:06;93812.22;;;22.55;28.26
43217;BME280;60511;42.686;23.300;2023-04-01T00:55:08;93783.75;;;22.27;27.91
43217;BME280;60511;42.686;23.300;2023-04-01T00:57:15;93809.13;;;22.53;28.01
43217;BME280;60511;42.686;23.300;2023-04-01T00:59:48;93797.22;;;22.54;28.14
43217;BME280;60511;42.686;23.300;2023-04-01T01:01:50;93801.81;;;22.53;28.02
43217;BME280;60511;42.686;23.300;2023-04-01T01:03:51;93789.78;;;22.47;27.87
43217;BME280;60511;42.686;23.300;2023-04-01T01:06:11;93789.84;;;22.51;28.10
43217;BME280;60511;42.686;23.300;2023-04-01T01:10:49;93789.13;;;22.54;27.81
43217;BME280;60511;42.686;23.300;2023-04-01T01:15:37;93741.81;;;22.30;27.92
43217;BME280;60511;42.686;23.300;2023-04-01T01:20:02;93773.34;;;22.56;27.79
43217;BME280;60511;42.686;23.300;2023-04-01T01:31:50;93746.22;;;22.45;28.03
43217;BME280;60511;42.686;23.300;2023-04-01T01:35:57;93751.25;;;22.46;28.02
43217;BME280;60511;42.686;23.300;2023-04-01T01:38:02;93684.19;;;22.11;27.91
43217;BME280;60511;42.686;23.300;2023-04-01T01:40:06;93708.31;;;22.31;28.12
43217;BME280;60511;42.686;23.300;2023-04-01T01:42:09;93606.63;;;21.63;28.02
43217;BME280;60511;42.686;23.300;2023-04-01T01:44:12;93747.09;;;22.53;27.97
43217;BME280;60511;42.686;23.300;2023-04-01T01:46:17;93743.28;;;22.54;28.09
43217;BME280;60511;42.686;23.300;2023-04-01T01:48:20;93731.16;;;22.40;28.07
43217;BME280;60511;42.686;23.300;2023-04-01T01:50:21;93659.31;;;21.91;27.87
43217;BME280;60511;42.686;23.300;2023-04-01T01:52:23;93754.06;;;22.54;27.94
43217;BME280;60511;42.686;23.300;2023-04-01T01:54:24;93659.72;;;21.93;27.89
43217;BME280;60511;42.686;23.300;2023-04-01T01:56:26;93741.59;;;22.42;27.60
43217;BME280;60511;42.686;23.300;2023-04-01T01:58:32;93662.78;;;21.92;28.01
43217;BME280;60511;42.686;23.300;2023-04-01T02:00:35;93731.28;;;22.51;27.86
43217;BME280;60511;42.686;23.300;2023-04-01T02:02:36;93744.41;;;22.53;27.90
43217;BME280;60511;42.686;23.300;2023-04-01T02:04:40;93739.00;;;22.53;28.15
43217;BME280;60511;42.686;23.300;2023-04-01T02:06:50;93730.16;;;22.52;27.99
43217;BME280;60511;42.686;23.300;2023-04-01T02:08:59;93722.81;;;22.53;27.99
43217;BME280;60511;42.686;23.300;2023-04-01T02:11:13;93683.16;;;22.23;28.06
43217;BME280;60511;42.686;23.300;2023-04-01T02:13:17;93721.66;;;22.50;27.90
43217;BME280;60511;42.686;23.300;2023-04-01T02:15:20;93672.88;;;22.29;28.03
43217;BME280;60511;42.686;23.300;2023-04-01T02:17:23;93628.50;;;21.92;28.04
43217;BME280;60511;42.686;23.300;2023-04-01T02:19:28;93728.97;;;22.50;27.91
43217;BME280;60511;42.686;23.300;2023-04-01T02:21:32;93699.97;;;22.39;28.04
43217;BME280;60511;42.686;23.300;2023-04-01T02:23:36;93681.38;;;22.31;28.19
43217;BME280;60511;42.686;23.300;2023-04-01T02:25:38;93668.50;;;22.20;27.86
43217;BME280;60511;42.686;23.300;2023-04-01T02:27:43;93723.56;;;22.50;28.04
43217;BME280;60511;42.686;23.300;2023-04-01T02:29:44;93728.97;;;22.50;28.18
43217;BME280;60511;42.686;23.300;2023-04-01T02:31:45;93731.66;;;22.50;28.02
43217;BME280;60511;42.686;23.300;2023-04-01T02:33:46;93706.44;;;22.35;27.79
43217;BME280;60511;42.686;23.300;2023-04-01T02:35:47;93708.94;;;22.51;27.80
43217;BME280;60511;42.686;23.300;2023-04-01T02:37:49;93654.44;;;22.04;27.96
43217;BME280;60511;42.686;23.300;2023-04-01T02:39:50;93711.47;;;22.36;28.03
43217;BME280;60511;42.686;23.300;2023-04-01T02:41:51;93648.72;;;22.05;27.97
43217;BME280;60511;42.686;23.300;2023-04-01T02:43:52;93685.03;;;22.15;28.10
43217;BME280;60511;42.686;23.300;2023-04-01T02:45:52;93737.84;;;22.50;27.82
43217;BME280;60511;42.686;23.300;2023-04-01T02:47:53;93678.00;;;22.11;28.22
43217;BME280;60511;42.686;23.300;2023-04-01T02:49:53;93649.72;;;21.94;28.23
43217;BME280;60511;42.686;23.300;2023-04-01T02:51:58;93669.94;;;22.11;27.79
43217;BME280;60511;42.686;23.300;2023-04-01T02:53:59;93725.34;;;22.38;28.18
43217;BME280;60511;42.686;23.300;2023-04-01T02:55:59;93733.97;;;22.51;27.79
43217;BME280;60511;42.686;23.300;2023-04-01T02:58:00;93735.78;;;22.40;28.07
43217;BME280;60511;42.686;23.300;2023-04-01T03:00:00;93735.78;;;22.40;27.86
43217;BME280;60511;42.686;23.300;2023-04-01T03:02:01;93728.34;;;22.30;27.91
43217;BME280;60511;42.686;23.300;2023-04-01T03:04:01;93713.56;;;22.20;28.02
43217;BME280;60511;42.686;23.300;2023-04-01T03:06:10;93702.66;;;22.09;28.00
43217;BME280;60511;42.686;23.300;2023-04-01T03:08:10;93711.09;;;22.07;28.06
43217;BME280;60511;42.686;23.300;2023-04-01T03:10:11;93724.41;;;22.23;28.15
43217;BME280;60511;42.686;23.300;2023-04-01T03:12:12;93695.69;;;22.08;28.07
43217;BME280;60511;42.686;23.300;2023-04-01T03:14:12;93674.72;;;21.94;27.98
43217;BME280;60511;42.686;23.300;2023-04-01T03:16:13;93731.03;;;22.30;28.17
43217;BME280;60511;42.686;23.300;2023-04-01T03:18:13;93708.75;;;22.06;27.92
43217;BME280;60511;42.686;23.300;2023-04-01T03:20:15;93767.84;;;22.49;28.17
43217;BME280;60511;42.686;23.300;2023-04-01T03:22:16;93751.19;;;22.39;28.00
43217;BME280;60511;42.686;23.300;2023-04-01T03:24:16;93785.22;;;22.51;27.95
43217;BME280;60511;42.686;23.300;2023-04-01T03:26:17;93770.91;;;22.47;27.93
43217;BME280;60511;42.686;23.300;2023-04-01T03:28:18;93727.72;;;22.13;27.93
43217;BME280;60511;42.686;23.300;2023-04-01T03:30:18;93740.25;;;22.29;28.15
43217;BME280;60511;42.686;23.300;2023-04-01T03:32:19;93621.50;;;21.54;27.81
43217;BME280;60511;42.686;23.300;2023-04-01T03:34:19;93748.84;;;22.38;27.94
43217;BME280;60511;42.686;23.300;2023-04-01T03:36:19;93705.72;;;22.07;27.89
43217;BME280;60511;42.686;23.300;2023-04-01T03:38:20;93754.00;;;22.50;27.98
43217;BME280;60511;42.686;23.300;2023-04-01T03:40:21;93675.59;;;22.02;27.97
43217;BME280;60511;42.686;23.300;2023-04-01T03:42:21;93749.34;;;22.47;28.19
43217;BME280;60511;42.686;23.300;2023-04-01T03:44:21;93661.41;;;22.05;28.20
43217;BME280;60511;42.686;23.300;2023-04-01T03:46:22;93625.81;;;21.89;28.18
43217;BME280;60511;42.686;23.300;2023-04-01T03:48:22;93714.69;;;22.49;28.05
43217;BME280;60511;42.686;23.300;2023-04-01T03:50:24;93701.22;;;22.49;27.78
43217;BME280;60511;42.686;23.300;2023-04-01T03:52:24;93687.72;;;22.45;28.03
43217;BME280;60511;42.686;23.300;2023-04-01T03:54:25;93678.41;;;22.43;28.11
43217;BME280;60511;42.686;23.300;2023-04-01T03:56:25;93607.88;;;22.03;28.12
43217;BME280;60511;42.686;23.300;2023-04-01T03:58:26;93665.38;;;22.49;28.06
43217;BME280;60511;42.686;23.300;2023-04-01T04:00:26;93621.25;;;22.26;27.98
43217;BME280;60511;42.686;23.300;2023-04-01T04:02:27;93636.69;;;22.30;27.90
43217;BME280;60511;42.686;23.300;2023-04-01T04:04:27;93620.13;;;22.31;27.97
43217;BME280;60511;42.686;23.300;2023-04-01T04:06:28;93585.47;;;21.96;28.15
43217;BME280;60511;42.686;23.300;2023-04-01T04:08:28;93564.25;;;21.91;28.13
43217;BME280;60511;42.686;23.300;2023-04-01T04:10:29;93580.19;;;22.06;28.04
43217;BME280;60511;42.686;23.300;2023-04-01T04:12:29;93605.84;;;22.27;28.14
43217;BME280;60511;42.686;23.300;2023-04-01T04:14:30;93642.28;;;22.48;28.08
43217;BME280;60511;42.686;23.300;2023-04-01T04:16:31;93627.50;;;22.34;28.06
43217;BME280;60511;42.686;23.300;2023-04-01T04:18:34;93574.06;;;22.10;28.06
43217;BME280;60511;42.686;23.300;2023-04-01T04:20:35;93617.13;;;22.36;28.07
43217;BME280;60511;42.686;23.300;2023-04-01T04:22:36;93627.63;;;22.49;27.87
43217;BME280;60511;42.686;23.300;2023-04-01T04:24:36;93550.88;;;22.01;28.14
43217;BME280;60511;42.686;23.300;2023-04-01T04:26:37;93576.81;;;22.17;28.09
43217;BME280;60511;42.686;23.300;2023-04-01T04:28:37;93629.16;;;22.46;28.27
43217;BME280;60511;42.686;23.300;2023-04-01T04:30:38;93621.84;;;22.46;27.93
43217;BME280;60511;42.686;23.300;2023-04-01T04:32:38;93611.69;;;22.33;28.14
43217;BME280;60511;42.686;23.300;2023-04-01T04:34:38;93579.91;;;22.15;28.06
43217;BME280;60511;42.686;23.300;2023-04-01T04:36:39;93479.59;;;21.54;28.04
43217;BME280;60511;42.686;23.300;2023-04-01T04:38:39;93542.41;;;21.99;28.08
43217;BME280;60511;42.686;23.300;2023-04-01T04:40:41;93558.97;;;22.01;28.02
43217;BME280;60511;42.686;23.300;2023-04-01T04:42:42;93535.84;;;21.97;28.14
43217;BME280;60511;42.686;23.300;2023-04-01T04:44:43;93589.34;;;22.32;27.87
43217;BME280;60511;42.686;23.300;2023-04-01T04:46:43;93577.09;;;22.38;28.32
43217;BME280;60511;42.686;23.300;2023-04-01T04:48:45;93524.34;;;22.03;27.98
43217;BME280;60511;42.686;23.300;2023-04-01T04:50:50;93542.53;;;22.14;28.04
43217;BME280;60511;42.686;23.300;2023-04-01T04:52:51;93551.53;;;22.25;28.17
43217;BME280;60511;42.686;23.300;2023-04-01T04:54:52;93580.94;;;22.37;28.33
43217;BME280;60511;42.686;23.300;2023-04-01T04:56:52;93598.72;;;22.45;28.17
43217;BME280;60511;42.686;23.300;2023-04-01T04:58:53;93581.75;;;22.45;27.96
43217;BME280;60511;42.686;23.300;2023-04-01T05:00:54;93586.78;;;22.46;28.09
43217;BME280;60511;42.686;23.300;2023-04-01T05:02:54;93588.34;;;22.51;28.21
43217;BME280;60511;42.686;23.300;2023-04-01T05:04:55;93586.81;;;22.50;28.17
43217;BME280;60511;42.686;23.300;2023-04-01T05:06:55;93479.47;;;21.81;28.35
43217;BME280;60511;42.686;23.300;2023-04-01T05:08:56;93482.22;;;21.88;27.99
43217;BME280;60511;42.686;23.300;2023-04-01T05:10:56;93556.75;;;22.48;28.31
43217;BME280;60511;42.686;23.300;2023-04-01T05:12:58;93526.84;;;22.23;28.25
43217;BME280;60511;42.686;23.300;2023-04-01T05:14:58;93527.66;;;22.23;28.10
43217;BME280;60511;42.686;23.300;2023-04-01T05:16:58;93574.06;;;22.47;27.96
43217;BME280;60511;42.686;23.300;2023-04-01T05:18:59;93557.84;;;22.40;27.88
43217;BME280;60511;42.686;23.300;2023-04-01T05:20:59;93526.22;;;22.37;27.83
43217;BME280;60511;42.686;23.300;2023-04-01T05:23:00;93476.22;;;22.02;28.00
43217;BME280;60511;42.686;23.300;2023-04-01T05:25:01;93537.47;;;22.46;28.21
43217;BME280;60511;42.686;23.300;2023-04-01T05:27:01;93520.16;;;22.47;28.20
43217;BME280;60511;42.686;23.300;2023-04-01T05:29:03;93526.56;;;22.32;28.18
43217;BME280;60511;42.686;23.300;2023-04-01T05:31:05;93509.97;;;22.26;28.09
43217;BME280;60511;42.686;23.300;2023-04-01T05:33:05;93555.59;;;22.49;27.98
43217;BME280;60511;42.686;23.300;2023-04-01T05:35:06;93557.91;;;22.47;28.02
43217;BME280;60511;42.686;23.300;2023-04-01T05:37:07;93474.00;;;22.11;28.24
43217;BME280;60511;42.686;23.300;2023-04-01T05:39:07;93489.81;;;22.16;28.16
43217;BME280;60511;42.686;23.300;2023-04-01T05:41:07;93504.41;;;22.12;28.01
43217;BME280;60511;42.686;23.300;2023-04-01T05:43:08;93545.97;;;22.48;27.88
43217;BME280;60511;42.686;23.300;2023-04-01T05:45:09;93436.84;;;21.90;28.00
43217;BME280;60511;42.686;23.300;2023-04-01T05:47:09;93535.19;;;22.48;28.04
43217;BME280;60511;42.686;23.300;2023-04-01T05:49:09;93496.47;;;22.26;28.07
43217;BME280;60511;42.686;23.300;2023-04-01T05:51:14;93401.97;;;21.60;27.95
43217;BME280;60511;42.686;23.300;2023-04-01T05:53:15;93539.81;;;22.51;27.95
43217;BME280;60511;42.686;23.300;2023-04-01T05:55:16;93464.31;;;22.06;28.11
43217;BME280;60511;42.686;23.300;2023-04-01T05:57:16;93474.81;;;22.19;28.05
43217;BME280;60511;42.686;23.300;2023-04-01T05:59:16;93503.81;;;22.29;28.11
43217;BME280;60511;42.686;23.300;2023-04-01T06:01:17;93460.97;;;22.20;28.12
43217;BME280;60511;42.686;23.300;2023-04-01T06:03:19;93505.81;;;22.36;27.67
43217;BME280;60511;42.686;23.300;2023-04-01T06:05:24;93532.53;;;22.55;27.79
43217;BME280;60511;42.686;23.300;2023-04-01T06:07:27;93438.44;;;21.95;28.11
43217;BME280;60511;42.686;23.300;2023-04-01T06:09:29;93522.09;;;22.50;27.79
43217;BME280;60511;42.686;23.300;2023-04-01T06:11:55;93529.88;;;22.59;27.76
43217;BME280;60511;42.686;23.300;2023-04-01T06:34:39;93511.38;;;22.57;27.94
43217;BME280;60511;42.686;23.300;2023-04-01T06:36:57;93527.19;;;22.59;27.96
43217;BME280;60511;42.686;23.300;2023-04-01T06:45:47;93489.03;;;22.57;28.32
43217;BME280;60511;42.686;23.300;2023-04-01T06:50:28;93485.19;;;22.61;28.21
43217;BME280;60511;42.686;23.300;2023-04-01T06:52:40;93487.91;;;22.61;27.96
43217;BME280;60511;42.686;23.300;2023-04-01T06:54:57;93469.00;;;22.61;28.12
43217;BME280;60511;42.686;23.300;2023-04-01T06:57:19;93436.13;;;22.38;27.95
43217;BME280;60511;42.686;23.300;2023-04-01T06:59:25;93487.91;;;22.61;28.12
43217;BME280;60511;42.686;23.300;2023-04-01T07:01:33;93467.84;;;22.59;28.04
43217;BME280;60511;42.686;23.300;2023-04-01T07:03:44;93480.19;;;22.60;28.09
43217;BME280;60511;42.686;23.300;2023-04-01T07:05:47;93429.88;;;22.26;28.33
43217;BME280;60511;42.686;23.300;2023-04-01T07:07:54;93428.69;;;22.24;28.17
43217;BME280;60511;42.686;23.300;2023-04-01T07:09:58;93483.66;;;22.60;28.18
43217;BME280;60511;42.686;23.300;2023-04-01T07:12:07;93404.38;;;22.20;28.26
43217;BME280;60511;42.686;23.300;2023-04-01T07:14:23;93407.44;;;22.19;28.37
43217;BME280;60511;42.686;23.300;2023-04-01T07:16:51;93434.63;;;22.44;28.26
43217;BME280;60511;42.686;23.300;2023-04-01T07:20:56;93471.72;;;22.61;27.97
43217;BME280;60511;42.686;23.300;2023-04-01T07:23:04;93452.41;;;22.52;28.38
43217;BME280;60511;42.686;23.300;2023-04-01T07:25:15;93459.44;;;22.64;28.45
43217;BME280;60511;42.686;23.300;2023-04-01T07:27:16;93408.34;;;22.30;28.00
43217;BME280;60511;42.686;23.300;2023-04-01T07:29:17;93470.50;;;22.52;28.11
43217;BME280;60511;42.686;23.300;2023-04-01T07:41:30;93426.84;;;22.32;28.01
43217;BME280;60511;42.686;23.300;2023-04-01T07:43:41;93461.22;;;22.49;28.25
43217;BME280;60511;42.686;23.300;2023-04-01T07:48:32;93467.13;;;22.62;28.34
43217;BME280;60511;42.686;23.300;2023-04-01T07:55:39;93452.88;;;22.65;28.04
43217;BME280;60511;42.686;23.300;2023-04-01T07:57:56;93456.72;;;22.64;28.41
43217;BME280;60511;42.686;23.300;2023-04-01T08:06:47;93450.53;;;22.63;28.18
43217;BME280;60511;42.686;23.300;2023-04-01T08:18:06;93427.81;;;22.64;28.29
43217;BME280;60511;42.686;23.300;2023-04-01T08:20:32;93418.56;;;22.65;28.25
43217;BME280;60511;42.686;23.300;2023-04-01T08:23:10;93380.31;;;22.42;28.05
43217;BME280;60511;42.686;23.300;2023-04-01T08:25:26;93401.22;;;22.63;28.12
43217;BME280;60511;42.686;23.300;2023-04-01T08:27:37;93412.03;;;22.66;28.21
43217;BME280;60511;42.686;23.300;2023-04-01T08:29:53;93334.69;;;22.15;28.03
43217;BME280;60511;42.686;23.300;2023-04-01T08:32:12;93408.19;;;22.67;27.98
43217;BME280;60511;42.686;23.300;2023-04-01T08:34:26;93402.41;;;22.69;28.16
43217;BME280;60511;42.686;23.300;2023-04-01T08:36:31;93401.28;;;22.70;28.07
43217;BME280;60511;42.686;23.300;2023-04-01T08:39:01;93368.13;;;22.70;28.10
43217;BME280;60511;42.686;23.300;2023-04-01T08:44:04;93353.50;;;22.71;28.02
43217;BME280;60511;42.686;23.300;2023-04-01T08:55:56;93337.69;;;22.69;28.17
43217;BME280;60511;42.686;23.300;2023-04-01T08:58:17;93239.88;;;22.02;28.20
43217;BME280;60511;42.686;23.300;2023-04-01T09:26:31;93325.03;;;22.80;27.97
43217;BME280;60511;42.686;23.300;2023-04-01T09:29:12;93323.47;;;22.79;28.15
43217;BME280;60511;42.686;23.300;2023-04-01T09:38:52;93303.44;;;22.80;27.96
43217;BME280;60511;42.686;23.300;2023-04-01T09:41:15;93307.69;;;22.81;28.10
43217;BME280;60511;42.686;23.300;2023-04-01T09:43:34;93302.28;;;22.81;28.16
43217;BME280;60511;42.686;23.300;2023-04-01T09:51:26;93254.47;;;22.71;27.83
43217;BME280;60511;42.686;23.300;2023-04-01T09:53:49;93279.97;;;22.84;28.03
43217;BME280;60511;42.686;23.300;2023-04-01T10:12:23;93244.88;;;22.92;27.88
43217;BME280;60511;42.686;23.300;2023-04-01T10:14:56;93220.56;;;22.77;28.05
43217;BME280;60511;42.686;23.300;2023-04-01T10:24:19;93226.00;;;22.92;28.10
43217;BME280;60511;42.686;23.300;2023-04-01T10:31:03;93221.38;;;22.92;27.88
43217;BME280;60511;42.686;23.300;2023-04-01T10:49:47;93162.75;;;22.57;27.79
43217;BME280;60511;42.686;23.300;2023-04-01T10:57:00;93179.34;;;22.77;28.25
43217;BME280;60511;42.686;23.300;2023-04-01T11:16:54;93175.13;;;22.90;28.27
43217;BME280;60511;42.686;23.300;2023-04-01T11:37:52;93262.97;;;22.84;28.10
43217;BME280;60511;42.686;23.300;2023-04-01T11:44:25;93343.13;;;22.83;28.16
43217;BME280;60511;42.686;23.300;2023-04-01T11:46:52;93361.25;;;22.83;28.30
43217;BME280;60511;42.686;23.300;2023-04-01T12:00:56;93437.53;;;22.80;28.58
43217;BME280;60511;42.686;23.300;2023-04-01T12:13:11;93436.00;;;22.79;28.33
43217;BME280;60511;42.686;23.300;2023-04-01T12:19:52;93392.03;;;22.71;28.22
43217;BME280;60511;42.686;23.300;2023-04-01T12:22:10;93420.94;;;22.78;28.42
43217;BME280;60511;42.686;23.300;2023-04-01T12:29:07;93422.16;;;22.87;28.41
43217;BME280;60511;42.686;23.300;2023-04-01T12:51:58;93417.50;;;22.81;28.25
43217;BME280;60511;42.686;23.300;2023-04-01T13:08:00;93380.06;;;22.69;28.49
43217;BME280;60511;42.686;23.300;2023-04-01T13:15:05;93340.06;;;22.81;28.33
43217;BME280;60511;42.686;23.300;2023-04-01T13:17:23;93275.50;;;22.30;28.44
43217;BME280;60511;42.686;23.300;2023-04-01T13:23:56;93231.91;;;22.20;28.18
43217;BME280;60511;42.686;23.300;2023-04-01T13:28:27;93275.97;;;22.53;28.30
43217;BME280;60511;42.686;23.300;2023-04-01T13:33:20;93320.03;;;22.90;28.35
43217;BME280;60511;42.686;23.300;2023-04-01T13:35:48;93306.19;;;22.91;28.40
43217;BME280;60511;42.686;23.300;2023-04-01T13:45:03;93290.75;;;22.92;28.34
43217;BME280;60511;42.686;23.300;2023-04-01T13:49:24;93288.47;;;22.97;28.33
43217;BME280;60511;42.686;23.300;2023-04-01T14:13:03;93249.16;;;22.93;28.22
43217;BME280;60511;42.686;23.300;2023-04-01T14:15:25;93250.31;;;22.95;28.42
43217;BME280;60511;42.686;23.300;2023-04-01T14:26:52;93227.94;;;22.95;28.15
43217;BME280;60511;42.686;23.300;2023-04-01T14:29:57;93233.72;;;22.93;28.00
43217;BME280;60511;42.686;23.300;2023-04-01T14:41:42;93180.09;;;22.74;28.26
43217;BME280;60511;42.686;23.300;2023-04-01T14:48:51;93212.88;;;22.83;28.20
43217;BME280;60511;42.686;23.300;2023-04-01T14:51:02;93227.94;;;22.98;28.40
43217;BME280;60511;42.686;23.300;2023-04-01T14:55:32;93225.63;;;22.97;28.14
43217;BME280;60511;42.686;23.300;2023-04-01T14:57:33;93235.66;;;23.00;28.13
43217;BME280;60511;42.686;23.300;2023-04-01T14:59:39;93173.94;;;22.70;28.05
43217;BME280;60511;42.686;23.300;2023-04-01T15:07:06;93234.53;;;23.04;28.21
43217;BME280;60511;42.686;23.300;2023-04-01T15:09:33;93190.16;;;22.77;28.12
43217;BME280;60511;42.686;23.300;2023-04-01T15:25:39;93236.00;;;22.84;28.37
43217;BME280;60511;42.686;23.300;2023-04-01T15:37:11;93258.41;;;22.95;28.23
43217;BME280;60511;42.686;23.300;2023-04-01T15:44:03;93262.59;;;22.82;28.23
43217;BME280;60511;42.686;23.300;2023-04-01T15:53:37;93432.94;;;22.80;28.37
43217;BME280;60511;42.686;23.300;2023-04-01T16:04:55;93449.44;;;22.68;28.44
43217;BME280;60511;42.686;23.300;2023-04-01T16:07:40;93492.28;;;22.84;28.33
43217;BME280;60511;42.686;23.300;2023-04-01T16:09:50;93495.78;;;22.88;28.43
43217;BME280;60511;42.686;23.300;2023-04-01T16:16:14;93516.19;;;22.85;28.54
43217;BME280;60511;42.686;23.300;2023-04-01T16:20:44;93516.56;;;22.84;28.72
43217;BME280;60511;42.686;23.300;2023-04-01T16:23:02;93512.69;;;22.81;28.78
43217;BME280;60511;42.686;23.300;2023-04-01T16:25:43;93510.81;;;22.85;28.58
43217;BME280;60511;42.686;23.300;2023-04-01T16:30:35;93519.66;;;22.82;28.43
43217;BME280;60511;42.686;23.300;2023-04-01T16:37:34;93481.19;;;22.37;28.68
43217;BME280;60511;42.686;23.300;2023-04-01T16:42:13;93541.97;;;22.79;28.52
43217;BME280;60511;42.686;23.300;2023-04-01T16:44:22;93474.56;;;22.27;28.70
43217;BME280;60511;42.686;23.300;2023-04-01T16:46:34;93532.25;;;22.64;28.69
43217;BME280;60511;42.686;23.300;2023-04-01T16:50:59;93482.53;;;22.20;28.55
43217;BME280;60511;42.686;23.300;2023-04-01T16:53:17;93495.34;;;22.31;28.65
43217;BME280;60511;42.686;23.300;2023-04-01T16:55:24;93488.69;;;22.21;28.91
43217;BME280;60511;42.686;23.300;2023-04-01T16:57:52;93567.41;;;22.78;28.60
43217;BME280;60511;42.686;23.300;2023-04-01T17:02:23;93557.25;;;22.61;28.82
43217;BME280;60511;42.686;23.300;2023-04-01T17:04:34;93573.59;;;22.79;28.88
43217;BME280;60511;42.686;23.300;2023-04-01T17:06:45;93494.09;;;22.21;28.48
43217;BME280;60511;42.686;23.300;2023-04-01T17:10:56;93586.66;;;22.77;28.57
43217;BME280;60511;42.686;23.300;2023-04-01T17:15:20;93598.59;;;22.72;28.76
43217;BME280;60511;42.686;23.300;2023-04-01T17:17:31;93599.38;;;22.76;28.68
43217;BME280;60511;42.686;23.300;2023-04-01T17:19:45;93614.78;;;22.76;28.76
43217;BME280;60511;42.686;23.300;2023-04-01T17:21:57;93548.22;;;22.42;28.73
43217;BME280;60511;42.686;23.300;2023-04-01T17:26:51;93537.41;;;22.35;28.69
43217;BME280;60511;42.686;23.300;2023-04-01T17:29:03;93504.00;;;22.10;28.51
43217;BME280;60511;42.686;23.300;2023-04-01T17:31:15;93609.03;;;22.77;28.56
43217;BME280;60511;42.686;23.300;2023-04-01T17:50:35;93607.72;;;22.60;28.80
43217;BME280;60511;42.686;23.300;2023-04-01T17:55:40;93623.63;;;22.73;28.56
43217;BME280;60511;42.686;23.300;2023-04-01T18:00:02;93636.34;;;22.72;28.72
43217;BME280;60511;42.686;23.300;2023-04-01T18:08:58;93664.81;;;22.70;28.75
43217;BME280;60511;42.686;23.300;2023-04-01T18:11:09;93665.63;;;22.70;28.71
43217;BME280;60511;42.686;23.300;2023-04-01T18:13:40;93662.13;;;22.70;28.91
43217;BME280;60511;42.686;23.300;2023-04-01T18:21:29;93680.22;;;22.69;28.46
43217;BME280;60511;42.686;23.300;2023-04-01T18:23:56;93694.88;;;22.68;28.81
43217;BME280;60511;42.686;23.300;2023-04-01T18:26:08;93679.09;;;22.70;28.69
43217;BME280;60511;42.686;23.300;2023-04-01T18:28:27;93571.50;;;21.86;28.68
43217;BME280;60511;42.686;23.300;2023-04-01T18:30:34;93658.06;;;22.45;28.66
43217;BME280;60511;42.686;23.300;2023-04-01T18:32:49;93680.59;;;22.67;28.83
43217;BME280;60511;42.686;23.300;2023-04-01T18:34:55;93669.03;;;22.67;28.74
43217;BME280;60511;42.686;23.300;2023-04-01T18:39:23;93654.28;;;22.54;28.67
43217;BME280;60511;42.686;23.300;2023-04-01T18:41:38;93680.59;;;22.67;28.69
43217;BME280;60511;42.686;23.300;2023-04-01T18:43:56;93672.13;;;22.69;28.51
43217;BME280;60511;42.686;23.300;2023-04-01T18:46:05;93592.63;;;22.18;28.96
43217;BME280;60511;42.686;23.300;2023-04-01T18:52:41;93614.19;;;22.18;28.72
43217;BME280;60511;42.686;23.300;2023-04-01T18:55:24;93686.00;;;22.67;28.38
43217;BME280;60511;42.686;23.300;2023-04-01T18:57:14;93594.47;;;22.11;28.64
43217;BME280;60511;42.686;23.300;2023-04-01T19:06:48;93693.16;;;22.53;28.85
43217;BME280;60511;42.686;23.300;2023-04-01T19:08:52;93675.34;;;22.44;28.62
43217;BME280;60511;42.686;23.300;2023-04-01T19:15:41;93726.44;;;22.67;28.78
43217;BME280;60511;42.686;23.300;2023-04-01T19:22:19;93721.81;;;22.64;28.57
43217;BME280;60511;42.686;23.300;2023-04-01T19:24:46;93722.97;;;22.67;28.76